Scan Trans — JXGT — position and weather

sailwx.info

Track history (hours):
 
Tides and Currents Weather Stations Pressure Air Temp Water Temp Dewpoint Dewpoint Depression Visibility Wind Speed Wind Dir Waves Ship Positions

Scan Trans

Last reported at 2017-Dec-15 08:00 UTC. Time now 2017-Dec-15 08:18 UTC.
Position N 62°53' E 006°43'.

Length 52 m; draft 4 m.

Type: Ship. MMSI: 257228000.

Date/timePositionNaut miles runAvg speedWind from/ knotsBaromVisibWave heightAir tempDewpointWater temp
2017-Dec-15 08:00N 62°53' E 006°43'510.0
2017-Dec-15 07:30N 62°57' E 006°49'5 9.3
2017-Dec-15 07:00N 62°59' E 006°58'5 9.5
2017-Dec-15 06:30N 63°01' E 007°07'5 9.7
2017-Dec-15 06:01N 63°03' E 007°17'5 9.8
2017-Dec-15 05:30N 63°05' E 007°27'510.0
2017-Dec-15 05:01N 63°07' E 007°37'4 8.7
2017-Dec-15 04:31N 63°03' E 007°41'0 0.5
2017-Dec-15 04:00N 63°03' E 007°42'1 0.9
2017-Dec-15 02:30N 63°05' E 007°42'3 1.8
2017-Dec-15 01:01N 63°07' E 007°41'510.1
2017-Dec-15 00:30N 63°11' E 007°48'59 9.8
2017-Dec-14 18:30N 63°47' E 009°33'510.2
2017-Dec-14 18:00N 63°51' E 009°39'510.1
2017-Dec-14 17:30N 63°53' E 009°49'1 2.7
2017-Dec-14 17:00N 63°53' E 009°52'0 0.0
2017-Dec-14 16:30N 63°53' E 009°52'0 0.0
2017-Dec-14 16:00N 63°53' E 009°52'0 0.0
2017-Dec-14 15:00N 63°53' E 009°52'0 0.0
2017-Dec-14 14:31N 63°53' E 009°52'0 0.0
2017-Dec-14 14:00N 63°53' E 009°52'0 0.0
2017-Dec-14 13:30N 63°53' E 009°52'0 0.0
2017-Dec-14 13:00N 63°53' E 009°52'0 0.0
2017-Dec-14 12:30N 63°53' E 009°52'0 0.0
2017-Dec-14 12:00N 63°53' E 009°52'0 0.0
2017-Dec-14 11:30N 63°53' E 009°52'0 0.0
2017-Dec-14 10:59N 63°53' E 009°52'0 0.0
2017-Dec-14 10:30N 63°53' E 009°52'0 0.0
2017-Dec-14 10:00N 63°53' E 009°52'0 0.0
2017-Dec-14 09:30N 63°53' E 009°52'1 2.6
2017-Dec-14 09:00N 63°54' E 009°53'4 8.2
2017-Dec-14 08:30N 63°58' E 009°49'4 8.5
2017-Dec-14 08:00N 64°02' E 009°47'4 7.4
2017-Dec-14 07:30N 64°05' E 009°53'2 3.2
2017-Dec-14 07:00N 64°05' E 009°56'3 6.8
2017-Dec-14 06:30N 64°03' E 010°02'4 7.9
2017-Dec-14 05:59N 63°60' E 009°56'0 0.0
2017-Dec-14 05:31N 63°60' E 009°56'0 0.0
2017-Dec-14 05:00N 63°60' E 009°56'0 0.6
2017-Dec-14 04:30N 63°60' E 009°56'2 4.9
2017-Dec-14 04:00N 63°58' E 009°52'3 5.7
2017-Dec-14 03:30N 63°56' E 009°48'4 7.7
2017-Dec-14 03:00N 63°53' E 009°43'4 8.7
2017-Dec-14 02:30N 63°49' E 009°36'5 9.9
2017-Dec-14 02:00N 63°45' E 009°31'5 9.9
2017-Dec-14 01:30N 63°42' E 009°23'5 9.9
2017-Dec-14 01:00N 63°38' E 009°15'5 9.5
2017-Dec-14 00:30N 63°36' E 009°05'2 4.9
2017-Dec-14 00:00N 63°37' E 008°59'1 1.9
2017-Dec-13 23:30N 63°37' E 009°01'5 9.3
2017-Dec-13 23:00N 63°38' E 009°12'5 9.3
2017-Dec-13 22:30N 63°41' E 009°20'5 9.3
2017-Dec-13 22:00N 63°44' E 009°27'5 9.4
2017-Dec-13 21:31N 63°45' E 009°38'4 7.2
2017-Dec-13 21:00N 63°46' E 009°46'0 0.0
2017-Dec-13 20:30N 63°46' E 009°46'0 0.0
2017-Dec-13 20:00N 63°46' E 009°46'0 0.0
2017-Dec-13 19:31N 63°46' E 009°46'0 0.0
2017-Dec-13 19:00N 63°46' E 009°46'0 0.0
2017-Dec-13 18:30N 63°46' E 009°46'0 0.0
2017-Dec-13 18:00N 63°46' E 009°46'0 0.3
2017-Dec-13 17:30N 63°46' E 009°45'2 4.7
2017-Dec-13 17:00N 63°45' E 009°40'5 9.2
2017-Dec-13 16:30N 63°43' E 009°31'4 9.0
2017-Dec-13 16:00N 63°38' E 009°29'5 9.3
2017-Dec-13 15:30N 63°35' E 009°23'510.2
2017-Dec-13 15:00N 63°32' E 009°13'510.6
2017-Dec-13 14:30N 63°29' E 009°02'510.1
2017-Dec-13 14:00N 63°27' E 008°52'5 9.9
2017-Dec-13 13:30N 63°26' E 008°42'5 9.9
2017-Dec-13 13:00N 63°24' E 008°31'5 9.6
2017-Dec-13 12:30N 63°21' E 008°23'510.6
2017-Dec-13 12:01N 63°18' E 008°13'510.6
2017-Dec-13 11:30N 63°15' E 008°03'5 9.9
2017-Dec-13 11:00N 63°13' E 007°54'5 9.7
2017-Dec-13 10:31N 63°10' E 007°45'510.1
2017-Dec-13 10:01N 63°07' E 007°36'510.1
2017-Dec-13 09:31N 63°05' E 007°26'5 9.7
2017-Dec-13 09:01N 63°03' E 007°16'5 9.9
2017-Dec-13 08:30N 63°01' E 007°06'510.0
2017-Dec-13 08:00N 62°59' E 006°56'510.1
2017-Dec-13 07:30N 62°55' E 006°48'510.6
2017-Dec-13 07:00N 62°51' E 006°41'510.1
2017-Dec-13 06:29N 62°47' E 006°35'5 9.9
2017-Dec-13 06:00N 62°43' E 006°29'510.1
2017-Dec-13 05:30N 62°39' E 006°23'510.3
2017-Dec-13 05:00N 62°35' E 006°15'5 9.7
2017-Dec-13 04:30N 62°31' E 006°09'5 9.8
2017-Dec-13 04:00N 62°27' E 006°02'510.0
2017-Dec-13 03:30N 62°25' E 005°52'5 9.7
2017-Dec-13 03:00N 62°21' E 005°46'4 8.3
2017-Dec-13 02:30N 62°19' E 005°39'5 9.3
2017-Dec-13 02:01N 62°16' E 005°31'5 8.9
2017-Dec-13 01:30N 62°12' E 005°28'5 9.6
2017-Dec-13 01:00N 62°09' E 005°20'0 0.9
2017-Dec-13 00:30N 62°08' E 005°19'0 0.0
2017-Dec-13 00:00N 62°08' E 005°19'0 0.0
2017-Dec-12 23:31N 62°08' E 005°19'2 4.1
2017-Dec-12 23:00N 62°10' E 005°21'5 9.3
2017-Dec-12 22:30N 62°13' E 005°13'4 8.8
2017-Dec-12 22:00N 62°11' E 005°05'5 9.6
2017-Dec-12 21:30N 62°06' E 005°06'5 9.3
2017-Dec-12 21:00N 62°03' E 005°13'4 7.8
2017-Dec-12 20:30N 62°00' E 005°20'0 0.0
2017-Dec-12 20:00N 62°00' E 005°20'0 0.0
2017-Dec-12 19:31N 62°00' E 005°20'0 0.0
2017-Dec-12 19:00N 62°00' E 005°20'3 6.1
2017-Dec-12 18:30N 61°60' E 005°14'4 8.6
2017-Dec-12 18:00N 61°56' E 005°08'4 8.6
2017-Dec-12 17:30N 61°53' E 005°12'3 6.2
2017-Dec-12 17:00N 61°49' E 005°13'5 9.5
2017-Dec-12 16:30N 61°47' E 005°05'5 9.3
2017-Dec-12 16:00N 61°44' E 004°58'5 9.4
2017-Dec-12 15:30N 61°39' E 004°59'3 6.4
2017-Dec-12 15:00N 61°36' E 005°02'0 0.1
2017-Dec-12 14:30N 61°36' E 005°02'0 0.0
2017-Dec-12 14:00N 61°36' E 005°02'3 5.0
2017-Dec-12 13:30N 61°35' E 004°57'5 9.4
2017-Dec-12 13:00N 61°31' E 005°00'5 9.7
2017-Dec-12 12:30N 61°26' E 004°58'5 9.5
2017-Dec-12 12:00N 61°22' E 005°02'4 7.3
2017-Dec-12 11:30N 61°18' E 005°00'4 7.7
2017-Dec-12 11:00N 61°15' E 004°56'510.1
2017-Dec-12 10:30N 61°11' E 005°02'510.1
2017-Dec-12 10:00N 61°07' E 005°10'510.4
2017-Dec-12 09:31N 61°05' E 005°18'510.2
2017-Dec-12 09:00N 61°02' E 005°28'3 5.9
2017-Dec-12 08:30N 60°59' E 005°29'0 0.0
2017-Dec-12 08:00N 60°59' E 005°29'0 0.0
2017-Dec-12 07:30N 60°59' E 005°29'0 0.1
2017-Dec-12 07:00N 60°59' E 005°29'4 8.1
2017-Dec-12 06:30N 61°03' E 005°25'5 9.0
2017-Dec-12 06:00N 61°05' E 005°17'4 8.5
2017-Dec-12 05:30N 61°06' E 005°08'4 8.9
2017-Dec-12 05:00N 61°04' E 005°00'5 9.0
2017-Dec-12 04:30N 61°01' E 004°53'4 9.2
2017-Dec-12 04:00N 60°58' E 004°46'5 9.9
2017-Dec-12 03:30N 60°53' E 004°46'5 9.4
2017-Dec-12 03:00N 60°48' E 004°45'510.6
2017-Dec-12 02:30N 60°43' E 004°49'610.8
2017-Dec-12 02:00N 60°38' E 004°53'4 8.8
2017-Dec-12 01:30N 60°34' E 004°52'0 0.0
2017-Dec-12 01:00N 60°34' E 004°52'0 0.0
2017-Dec-12 00:29N 60°34' E 004°52'0 0.2
2017-Dec-12 00:00N 60°34' E 004°53'0 0.0
2017-Dec-11 23:30N 60°34' E 004°53'0 0.1
2017-Dec-11 23:00N 60°34' E 004°53'0 0.1
2017-Dec-11 22:30N 60°34' E 004°52'0 0.7
2017-Dec-11 22:00N 60°34' E 004°53'5 9.7
2017-Dec-11 21:30N 60°30' E 004°59'510.4
2017-Dec-11 21:00N 60°25' E 005°03'5 9.3
2017-Dec-11 20:30N 60°22' E 005°10'4 8.7
2017-Dec-11 20:01N 60°18' E 005°09'2 3.9
2017-Dec-11 19:30N 60°16' E 005°06'0 0.0
2017-Dec-11 19:00N 60°16' E 005°06'0 0.0
2017-Dec-11 18:30N 60°16' E 005°06'0 0.0
2017-Dec-11 18:00N 60°16' E 005°06'0 0.0
2017-Dec-11 17:30N 60°16' E 005°06'0 0.0
2017-Dec-11 17:01N 60°16' E 005°06'0 0.0
2017-Dec-11 16:30N 60°16' E 005°06'0 0.0
2017-Dec-11 16:00N 60°16' E 005°06'0 0.0
2017-Dec-11 15:30N 60°16' E 005°06'0 0.0
2017-Dec-11 15:00N 60°16' E 005°06'0 0.0
2017-Dec-11 14:30N 60°16' E 005°06'0 0.0
2017-Dec-11 14:00N 60°16' E 005°06'0 0.0
2017-Dec-11 13:30N 60°16' E 005°06'0 0.0
2017-Dec-11 13:00N 60°16' E 005°06'0 0.0
2017-Dec-11 12:30N 60°16' E 005°06'0 0.0
2017-Dec-11 12:00N 60°16' E 005°06'0 0.0
2017-Dec-11 11:29N 60°16' E 005°06'0 0.0
2017-Dec-11 11:00N 60°16' E 005°06'0 0.0
2017-Dec-11 10:30N 60°16' E 005°06'0 0.0
2017-Dec-11 10:00N 60°16' E 005°06'0 0.0
2017-Dec-11 09:30N 60°16' E 005°06'0 0.0
2017-Dec-11 09:00N 60°16' E 005°06'0 0.0
2017-Dec-11 08:30N 60°16' E 005°06'0 0.0
2017-Dec-11 08:00N 60°16' E 005°06'0 0.0
2017-Dec-11 07:30N 60°16' E 005°06'0 0.0
2017-Dec-11 07:00N 60°16' E 005°06'0 0.0
2017-Dec-11 06:30N 60°16' E 005°06'0 0.0
2017-Dec-11 06:00N 60°16' E 005°06'0 0.0
2017-Dec-11 05:30N 60°16' E 005°06'0 0.0
2017-Dec-11 05:01N 60°16' E 005°06'0 0.0
2017-Dec-11 04:30N 60°16' E 005°06'0 0.0
2017-Dec-11 04:00N 60°16' E 005°06'0 0.0
2017-Dec-11 03:30N 60°16' E 005°06'1 1.5
2017-Dec-11 03:00N 60°16' E 005°08'510.2
2017-Dec-11 02:30N 60°11' E 005°14'510.1
2017-Dec-11 02:00N 60°07' E 005°19'5 9.9
2017-Dec-11 01:30N 60°02' E 005°20'510.3
2017-Dec-11 01:00N 59°58' E 005°25'611.1
2017-Dec-11 00:30N 59°53' E 005°32'510.4
2017-Dec-11 00:00N 59°48' E 005°34'5 9.1
2017-Dec-10 23:30N 59°44' E 005°30'4 8.8
2017-Dec-10 23:00N 59°41' E 005°24'4 8.9
2017-Dec-10 22:30N 59°38' E 005°18'4 8.6
2017-Dec-10 22:00N 59°34' E 005°12'4 7.9
2017-Dec-10 21:30N 59°38' E 005°08'5 9.2
2017-Dec-10 21:00N 59°42' E 005°09'2 3.1
2017-Dec-10 20:30N 59°44' E 005°09'0 0.0
2017-Dec-10 20:00N 59°44' E 005°09'0 0.0
2017-Dec-10 19:30N 59°44' E 005°09'0 0.0
2017-Dec-10 19:00N 59°44' E 005°09'0 0.0
2017-Dec-10 18:30N 59°44' E 005°09'0 0.0
2017-Dec-10 18:00N 59°44' E 005°09'0 0.0
2017-Dec-10 17:30N 59°44' E 005°09'0 0.0
2017-Dec-10 16:59N 59°44' E 005°09'3 5.4
2017-Dec-10 16:30N 59°41' E 005°09'5 9.4
2017-Dec-10 15:59N 59°36' E 005°10'3 5.8
2017-Dec-10 15:30N 59°36' E 005°15'2 3.6
2017-Dec-10 15:00N 59°38' E 005°15'2 3.6
2017-Dec-10 14:31N 59°39' E 005°17'510.0
2017-Dec-10 14:00N 59°42' E 005°25'510.2
2017-Dec-10 13:30N 59°46' E 005°32'4 8.2
2017-Dec-10 13:00N 59°50' E 005°33'4 7.9
2017-Dec-10 12:30N 59°54' E 005°31'4 7.6
2017-Dec-10 12:00N 59°57' E 005°27'4 7.6
2017-Dec-10 11:30N 59°59' E 005°21'4 8.1
2017-Dec-10 11:00N 60°03' E 005°19'4 8.6
2017-Dec-10 10:30N 60°07' E 005°18'4 8.2
2017-Dec-10 10:00N 60°11' E 005°14'4 8.2
2017-Dec-10 09:30N 60°15' E 005°09'2 3.9
2017-Dec-10 08:59N 60°16' E 005°06'0 0.0
2017-Dec-10 08:29N 60°16' E 005°06'0 0.0
2017-Dec-10 07:59N 60°16' E 005°06'0 0.0
2017-Dec-10 07:29N 60°16' E 005°06'0 0.0
2017-Dec-10 07:00N 60°16' E 005°06'0 0.0
2017-Dec-10 06:30N 60°16' E 005°06'0 0.0
2017-Dec-10 06:00N 60°16' E 005°06'2 3.7
2017-Dec-10 05:30N 60°18' E 005°08'5 9.3
2017-Dec-10 05:00N 60°22' E 005°10'4 8.6
2017-Dec-10 04:30N 60°25' E 005°03'4 8.6
2017-Dec-10 04:00N 60°29' E 004°59'4 8.6
2017-Dec-10 03:30N 60°33' E 004°56'4 8.6
2017-Dec-10 03:00N 60°37' E 004°53'4 8.3
2017-Dec-10 02:29N 60°41' E 004°51'4 8.6
2017-Dec-10 02:00N 60°45' E 004°48'4 8.7
2017-Dec-10 01:30N 60°49' E 004°44'4 8.6
2017-Dec-10 01:00N 60°53' E 004°46'4 8.5
2017-Dec-10 00:30N 60°57' E 004°46'4 8.2
2017-Dec-10 00:00N 61°01' E 004°51'5 9.2
2017-Dec-09 23:30N 61°04' E 004°59'4 8.7
2017-Dec-09 23:00N 61°08' E 005°02'3 5.7
2017-Dec-09 22:29N 61°10' E 005°00'0 0.0
2017-Dec-09 22:00N 61°10' E 005°00'0 0.0
2017-Dec-09 21:30N 61°10' E 005°00'0 0.0
2017-Dec-09 21:00N 61°10' E 005°00'2 3.3
2017-Dec-09 20:30N 61°10' E 005°03'0 0.3
2017-Dec-09 20:00N 61°10' E 005°03'2 3.4
2017-Dec-09 19:30N 61°11' E 005°05'0 0.0
2017-Dec-09 19:00N 61°11' E 005°05'0 0.0
2017-Dec-09 18:30N 61°11' E 005°05'0 0.0
2017-Dec-09 18:00N 61°11' E 005°05'0 0.0
2017-Dec-09 17:30N 61°11' E 005°05'0 0.0
2017-Dec-09 17:00N 61°11' E 005°05'0 0.0
2017-Dec-09 16:30N 61°11' E 005°05'0 0.0
2017-Dec-09 16:00N 61°11' E 005°05'3 6.8
2017-Dec-09 15:30N 61°13' E 004°59'4 8.1
2017-Dec-09 15:00N 61°17' E 004°56'5 9.4
2017-Dec-09 14:30N 61°20' E 005°03'5 9.7
2017-Dec-09 14:00N 61°24' E 004°59'5 9.4
2017-Dec-09 13:30N 61°29' E 004°59'5 9.6
2017-Dec-09 13:00N 61°33' E 004°60'3 5.6
2017-Dec-09 12:30N 61°36' E 005°01'0 0.8
2017-Dec-09 12:00N 61°36' E 005°02'0 0.0
2017-Dec-09 11:30N 61°36' E 005°02'0 0.0
2017-Dec-09 11:00N 61°36' E 005°02'0 0.0
2017-Dec-09 10:30N 61°36' E 005°02'0 0.0
2017-Dec-09 10:00N 61°36' E 005°02'0 0.0
2017-Dec-09 09:30N 61°36' E 005°02'0 0.0
2017-Dec-09 09:00N 61°36' E 005°02'0 0.0
2017-Dec-09 08:30N 61°36' E 005°02'0 0.0
2017-Dec-09 08:00N 61°36' E 005°02'0 0.0
2017-Dec-09 07:30N 61°36' E 005°02'0 0.0
2017-Dec-09 07:00N 61°36' E 005°02'0 0.0
2017-Dec-09 06:30N 61°36' E 005°02'0 0.0
2017-Dec-09 06:00N 61°36' E 005°02'0 0.0
2017-Dec-09 05:29N 61°36' E 005°02'0 0.0
2017-Dec-09 05:00N 61°36' E 005°02'0 0.0
2017-Dec-09 04:30N 61°36' E 005°02'0 0.0
2017-Dec-09 04:00N 61°36' E 005°02'0 0.0
2017-Dec-09 03:30N 61°36' E 005°02'0 0.0
2017-Dec-09 03:00N 61°36' E 005°02'0 0.0
2017-Dec-09 02:30N 61°36' E 005°02'0 0.0
2017-Dec-09 02:00N 61°36' E 005°02'0 0.0
2017-Dec-09 01:30N 61°36' E 005°02'0 0.0
2017-Dec-09 01:00N 61°36' E 005°02'0 0.0
2017-Dec-09 00:29N 61°36' E 005°02'0 0.0
2017-Dec-09 00:00N 61°36' E 005°02'0 0.0
2017-Dec-08 23:30N 61°36' E 005°02'1 1.0
2017-Dec-08 23:00N 61°36' E 005°01'4 9.0
2017-Dec-08 22:30N 61°40' E 004°58'510.1
2017-Dec-08 22:00N 61°45' E 005°01'2 3.3
2017-Dec-08 21:30N 61°45' E 005°04'0 0.0
2017-Dec-08 21:00N 61°45' E 005°04'1 1.4
2017-Dec-08 20:30N 61°46' E 005°05'510.0
2017-Dec-08 20:00N 61°49' E 005°13'3 6.0
2017-Dec-08 19:30N 61°52' E 005°13'3 5.2
2017-Dec-08 19:00N 61°54' E 005°17'1 1.4
2017-Dec-08 18:29N 61°55' E 005°18'0 0.0
2017-Dec-08 18:00N 61°55' E 005°18'0 0.0
2017-Dec-08 17:29N 61°55' E 005°18'0 0.0
2017-Dec-08 17:00N 61°55' E 005°18'0 0.0
2017-Dec-08 16:30N 61°55' E 005°18'3 5.8
2017-Dec-08 15:59N 61°53' E 005°12'3 5.7
2017-Dec-08 15:30N 61°51' E 005°16'4 8.6
2017-Dec-08 15:00N 61°49' E 005°09'5 9.1
2017-Dec-08 14:30N 61°46' E 005°02'4 8.0
2017-Dec-08 14:00N 61°42' E 004°58'4 8.4
2017-Dec-08 13:30N 61°38' E 004°59'4 8.1
2017-Dec-08 13:00N 61°35' E 004°54'2 3.2
2017-Dec-08 12:30N 61°34' E 004°51'0 0.0
2017-Dec-08 12:00N 61°34' E 004°51'0 0.0
2017-Dec-08 11:30N 61°34' E 004°51'0 0.0
2017-Dec-08 11:00N 61°34' E 004°51'1 1.5
2017-Dec-08 10:30N 61°35' E 004°52'4 9.0
2017-Dec-08 10:00N 61°36' E 005°01'1 1.2
2017-Dec-08 09:30N 61°36' E 005°02'0 0.0
2017-Dec-08 09:00N 61°36' E 005°02'0 0.0
2017-Dec-08 08:30N 61°36' E 005°02'0 0.0
2017-Dec-08 08:00N 61°36' E 005°02'0 0.0
2017-Dec-08 07:30N 61°36' E 005°02'0 0.0
2017-Dec-08 07:00N 61°36' E 005°02'0 0.0
2017-Dec-08 06:30N 61°36' E 005°02'0 0.0
2017-Dec-08 06:00N 61°36' E 005°02'0 0.0
2017-Dec-08 05:30N 61°36' E 005°02'0 0.0
2017-Dec-08 05:00N 61°36' E 005°02'0 0.0
2017-Dec-08 04:29N 61°36' E 005°02'0 0.0
2017-Dec-08 04:00N 61°36' E 005°02'0 0.0
2017-Dec-08 03:30N 61°36' E 005°02'2 4.7
2017-Dec-08 03:00N 61°38' E 004°59'510.3
2017-Dec-08 02:30N 61°43' E 004°58'5 9.4
2017-Dec-08 02:00N 61°47' E 005°04'5 9.4
2017-Dec-08 01:30N 61°49' E 005°13'3 6.1
2017-Dec-08 01:00N 61°52' E 005°13'2 3.8
2017-Dec-08 00:30N 61°54' E 005°12'0 0.0
2017-Dec-08 00:00N 61°54' E 005°12'0 0.0
2017-Dec-07 23:30N 61°54' E 005°12'0 0.0
2017-Dec-07 23:00N 61°54' E 005°12'1 2.3
2017-Dec-07 22:30N 61°54' E 005°10'3 6.5
2017-Dec-07 22:00N 61°57' E 005°08'0 0.0
2017-Dec-07 21:30N 61°56' E 005°08'0 0.8
2017-Dec-07 21:00N 61°57' E 005°08'4 8.9
2017-Dec-07 20:30N 62°01' E 005°09'5 9.3
2017-Dec-07 20:00N 62°06' E 005°06'4 8.3
2017-Dec-07 19:30N 62°10' E 005°04'4 7.8
2017-Dec-07 19:00N 62°13' E 005°09'5 8.9
2017-Dec-07 18:29N 62°12' E 005°18'4 8.8
2017-Dec-07 18:00N 62°12' E 005°27'4 9.0
2017-Dec-07 17:30N 62°10' E 005°36'0 0.0
2017-Dec-07 17:00N 62°10' E 005°36'4 8.3
2017-Dec-07 16:30N 62°12' E 005°44'2 3.6
2017-Dec-07 16:00N 62°13' E 005°47'0 0.1
2017-Dec-07 15:30N 62°13' E 005°47'4 8.5
2017-Dec-07 15:00N 62°14' E 005°55'4 8.8
2017-Dec-07 14:30N 62°18' E 006°01'5 9.5
2017-Dec-07 14:00N 62°21' E 006°09'5 9.6
2017-Dec-07 13:30N 62°23' E 006°18'3 6.6
2017-Dec-07 13:00N 62°20' E 006°23'0 0.0
2017-Dec-07 12:30N 62°20' E 006°23'0 0.0
2017-Dec-07 12:00N 62°20' E 006°23'0 0.0
2017-Dec-07 11:30N 62°20' E 006°23'0 0.0
2017-Dec-07 11:00N 62°20' E 006°23'0 0.0
2017-Dec-07 10:30N 62°20' E 006°23'0 0.0
2017-Dec-07 10:00N 62°20' E 006°23'0 0.0
2017-Dec-07 09:30N 62°20' E 006°23'0 0.0
2017-Dec-07 08:59N 62°20' E 006°23'0 0.0
2017-Dec-07 08:30N 62°20' E 006°23'0 0.0
2017-Dec-07 08:00N 62°20' E 006°23'0 0.0
2017-Dec-07 07:30N 62°20' E 006°23'0 0.0
2017-Dec-07 07:00N 62°20' E 006°23'2 4.8
2017-Dec-07 06:30N 62°23' E 006°21'510.2
2017-Dec-07 06:00N 62°23' E 006°10'4 8.8
2017-Dec-07 05:30N 62°26' E 006°02'5 9.7
2017-Dec-07 05:00N 62°30' E 006°08'5 9.4
2017-Dec-07 04:30N 62°34' E 006°12'5 9.5
2017-Dec-07 04:00N 62°37' E 006°19'5 9.3
2017-Dec-07 03:30N 62°41' E 006°26'5 9.5
2017-Dec-07 03:00N 62°45' E 006°32'5 9.3
2017-Dec-07 02:30N 62°49' E 006°37'5 9.3
2017-Dec-07 02:00N 62°52' E 006°43'5 9.5
2017-Dec-07 01:30N 62°56' E 006°49'5 9.2
2017-Dec-07 01:00N 62°59' E 006°57'510.3
2017-Dec-07 00:30N 63°01' E 007°07'510.6
2017-Dec-07 00:00N 63°03' E 007°18'510.5
2017-Dec-06 23:30N 63°05' E 007°29'510.5
2017-Dec-06 23:00N 63°08' E 007°38'510.6
2017-Dec-06 22:30N 63°11' E 007°48'510.6
2017-Dec-06 22:00N 63°14' E 007°58'510.5
2017-Dec-06 21:30N 63°17' E 008°08'510.0
2017-Dec-06 21:00N 63°20' E 008°17'  
Track history (hours):
 
Tides and Currents Weather Stations Pressure Air Temp Water Temp Dewpoint Dewpoint Depression Visibility Wind Speed Wind Dir Waves Ship Positions

Scan Trans

Last reported at 2017-Dec-15 08:00 UTC. Time now 2017-Dec-15 08:18 UTC.
Position N 62°53' E 006°43'.

Length 52 m; draft 4 m.

Type: Ship. MMSI: 257228000.

Date/timePositionNaut miles runAvg speedWind from/ knotsBaromVisibWave heightAir tempDewpointWater temp
2017-Dec-15 08:00N 62°53' E 006°43'510.0
2017-Dec-15 07:30N 62°57' E 006°49'5 9.3
2017-Dec-15 07:00N 62°59' E 006°58'5 9.5
2017-Dec-15 06:30N 63°01' E 007°07'5 9.7
2017-Dec-15 06:01N 63°03' E 007°17'5 9.8
2017-Dec-15 05:30N 63°05' E 007°27'510.0
2017-Dec-15 05:01N 63°07' E 007°37'4 8.7
2017-Dec-15 04:31N 63°03' E 007°41'0 0.5
2017-Dec-15 04:00N 63°03' E 007°42'1 0.9
2017-Dec-15 02:30N 63°05' E 007°42'3 1.8
2017-Dec-15 01:01N 63°07' E 007°41'510.1
2017-Dec-15 00:30N 63°11' E 007°48'59 9.8
2017-Dec-14 18:30N 63°47' E 009°33'510.2
2017-Dec-14 18:00N 63°51' E 009°39'510.1
2017-Dec-14 17:30N 63°53' E 009°49'1 2.7
2017-Dec-14 17:00N 63°53' E 009°52'0 0.0
2017-Dec-14 16:30N 63°53' E 009°52'0 0.0
2017-Dec-14 16:00N 63°53' E 009°52'0 0.0
2017-Dec-14 15:00N 63°53' E 009°52'0 0.0
2017-Dec-14 14:31N 63°53' E 009°52'0 0.0
2017-Dec-14 14:00N 63°53' E 009°52'0 0.0
2017-Dec-14 13:30N 63°53' E 009°52'0 0.0
2017-Dec-14 13:00N 63°53' E 009°52'0 0.0
2017-Dec-14 12:30N 63°53' E 009°52'0 0.0
2017-Dec-14 12:00N 63°53' E 009°52'0 0.0
2017-Dec-14 11:30N 63°53' E 009°52'0 0.0
2017-Dec-14 10:59N 63°53' E 009°52'0 0.0
2017-Dec-14 10:30N 63°53' E 009°52'0 0.0
2017-Dec-14 10:00N 63°53' E 009°52'0 0.0
2017-Dec-14 09:30N 63°53' E 009°52'1 2.6
2017-Dec-14 09:00N 63°54' E 009°53'4 8.2
2017-Dec-14 08:30N 63°58' E 009°49'4 8.5
2017-Dec-14 08:00N 64°02' E 009°47'4 7.4
2017-Dec-14 07:30N 64°05' E 009°53'2 3.2
2017-Dec-14 07:00N 64°05' E 009°56'3 6.8
2017-Dec-14 06:30N 64°03' E 010°02'4 7.9
2017-Dec-14 05:59N 63°60' E 009°56'0 0.0
2017-Dec-14 05:31N 63°60' E 009°56'0 0.0
2017-Dec-14 05:00N 63°60' E 009°56'0 0.6
2017-Dec-14 04:30N 63°60' E 009°56'2 4.9
2017-Dec-14 04:00N 63°58' E 009°52'3 5.7
2017-Dec-14 03:30N 63°56' E 009°48'4 7.7
2017-Dec-14 03:00N 63°53' E 009°43'4 8.7
2017-Dec-14 02:30N 63°49' E 009°36'5 9.9
2017-Dec-14 02:00N 63°45' E 009°31'5 9.9
2017-Dec-14 01:30N 63°42' E 009°23'5 9.9
2017-Dec-14 01:00N 63°38' E 009°15'5 9.5
2017-Dec-14 00:30N 63°36' E 009°05'2 4.9
2017-Dec-14 00:00N 63°37' E 008°59'1 1.9
2017-Dec-13 23:30N 63°37' E 009°01'5 9.3
2017-Dec-13 23:00N 63°38' E 009°12'5 9.3
2017-Dec-13 22:30N 63°41' E 009°20'5 9.3
2017-Dec-13 22:00N 63°44' E 009°27'5 9.4
2017-Dec-13 21:31N 63°45' E 009°38'4 7.2
2017-Dec-13 21:00N 63°46' E 009°46'0 0.0
2017-Dec-13 20:30N 63°46' E 009°46'0 0.0
2017-Dec-13 20:00N 63°46' E 009°46'0 0.0
2017-Dec-13 19:31N 63°46' E 009°46'0 0.0
2017-Dec-13 19:00N 63°46' E 009°46'0 0.0
2017-Dec-13 18:30N 63°46' E 009°46'0 0.0
2017-Dec-13 18:00N 63°46' E 009°46'0 0.3
2017-Dec-13 17:30N 63°46' E 009°45'2 4.7
2017-Dec-13 17:00N 63°45' E 009°40'5 9.2
2017-Dec-13 16:30N 63°43' E 009°31'4 9.0
2017-Dec-13 16:00N 63°38' E 009°29'5 9.3
2017-Dec-13 15:30N 63°35' E 009°23'510.2
2017-Dec-13 15:00N 63°32' E 009°13'510.6
2017-Dec-13 14:30N 63°29' E 009°02'510.1
2017-Dec-13 14:00N 63°27' E 008°52'5 9.9
2017-Dec-13 13:30N 63°26' E 008°42'5 9.9
2017-Dec-13 13:00N 63°24' E 008°31'5 9.6
2017-Dec-13 12:30N 63°21' E 008°23'510.6
2017-Dec-13 12:01N 63°18' E 008°13'510.6
2017-Dec-13 11:30N 63°15' E 008°03'5 9.9
2017-Dec-13 11:00N 63°13' E 007°54'5 9.7
2017-Dec-13 10:31N 63°10' E 007°45'510.1
2017-Dec-13 10:01N 63°07' E 007°36'510.1
2017-Dec-13 09:31N 63°05' E 007°26'5 9.7
2017-Dec-13 09:01N 63°03' E 007°16'5 9.9
2017-Dec-13 08:30N 63°01' E 007°06'510.0
2017-Dec-13 08:00N 62°59' E 006°56'510.1
2017-Dec-13 07:30N 62°55' E 006°48'510.6
2017-Dec-13 07:00N 62°51' E 006°41'510.1
2017-Dec-13 06:29N 62°47' E 006°35'5 9.9
2017-Dec-13 06:00N 62°43' E 006°29'510.1
2017-Dec-13 05:30N 62°39' E 006°23'510.3
2017-Dec-13 05:00N 62°35' E 006°15'5 9.7
2017-Dec-13 04:30N 62°31' E 006°09'5 9.8
2017-Dec-13 04:00N 62°27' E 006°02'510.0
2017-Dec-13 03:30N 62°25' E 005°52'5 9.7
2017-Dec-13 03:00N 62°21' E 005°46'4 8.3
2017-Dec-13 02:30N 62°19' E 005°39'5 9.3
2017-Dec-13 02:01N 62°16' E 005°31'5 8.9
2017-Dec-13 01:30N 62°12' E 005°28'5 9.6
2017-Dec-13 01:00N 62°09' E 005°20'0 0.9
2017-Dec-13 00:30N 62°08' E 005°19'0 0.0
2017-Dec-13 00:00N 62°08' E 005°19'0 0.0
2017-Dec-12 23:31N 62°08' E 005°19'2 4.1
2017-Dec-12 23:00N 62°10' E 005°21'5 9.3
2017-Dec-12 22:30N 62°13' E 005°13'4 8.8
2017-Dec-12 22:00N 62°11' E 005°05'5 9.6
2017-Dec-12 21:30N 62°06' E 005°06'5 9.3
2017-Dec-12 21:00N 62°03' E 005°13'4 7.8
2017-Dec-12 20:30N 62°00' E 005°20'0 0.0
2017-Dec-12 20:00N 62°00' E 005°20'0 0.0
2017-Dec-12 19:31N 62°00' E 005°20'0 0.0
2017-Dec-12 19:00N 62°00' E 005°20'3 6.1
2017-Dec-12 18:30N 61°60' E 005°14'4 8.6
2017-Dec-12 18:00N 61°56' E 005°08'4 8.6
2017-Dec-12 17:30N 61°53' E 005°12'3 6.2
2017-Dec-12 17:00N 61°49' E 005°13'5 9.5
2017-Dec-12 16:30N 61°47' E 005°05'5 9.3
2017-Dec-12 16:00N 61°44' E 004°58'5 9.4
2017-Dec-12 15:30N 61°39' E 004°59'3 6.4
2017-Dec-12 15:00N 61°36' E 005°02'0 0.1
2017-Dec-12 14:30N 61°36' E 005°02'0 0.0
2017-Dec-12 14:00N 61°36' E 005°02'3 5.0
2017-Dec-12 13:30N 61°35' E 004°57'5 9.4
2017-Dec-12 13:00N 61°31' E 005°00'5 9.7
2017-Dec-12 12:30N 61°26' E 004°58'5 9.5
2017-Dec-12 12:00N 61°22' E 005°02'4 7.3
2017-Dec-12 11:30N 61°18' E 005°00'4 7.7
2017-Dec-12 11:00N 61°15' E 004°56'510.1
2017-Dec-12 10:30N 61°11' E 005°02'510.1
2017-Dec-12 10:00N 61°07' E 005°10'510.4
2017-Dec-12 09:31N 61°05' E 005°18'510.2
2017-Dec-12 09:00N 61°02' E 005°28'3 5.9
2017-Dec-12 08:30N 60°59' E 005°29'0 0.0
2017-Dec-12 08:00N 60°59' E 005°29'0 0.0
2017-Dec-12 07:30N 60°59' E 005°29'0 0.1
2017-Dec-12 07:00N 60°59' E 005°29'4 8.1
2017-Dec-12 06:30N 61°03' E 005°25'5 9.0
2017-Dec-12 06:00N 61°05' E 005°17'4 8.5
2017-Dec-12 05:30N 61°06' E 005°08'4 8.9
2017-Dec-12 05:00N 61°04' E 005°00'5 9.0
2017-Dec-12 04:30N 61°01' E 004°53'4 9.2
2017-Dec-12 04:00N 60°58' E 004°46'5 9.9
2017-Dec-12 03:30N 60°53' E 004°46'5 9.4
2017-Dec-12 03:00N 60°48' E 004°45'510.6
2017-Dec-12 02:30N 60°43' E 004°49'610.8
2017-Dec-12 02:00N 60°38' E 004°53'4 8.8
2017-Dec-12 01:30N 60°34' E 004°52'0 0.0
2017-Dec-12 01:00N 60°34' E 004°52'0 0.0
2017-Dec-12 00:29N 60°34' E 004°52'0 0.2
2017-Dec-12 00:00N 60°34' E 004°53'0 0.0
2017-Dec-11 23:30N 60°34' E 004°53'0 0.1
2017-Dec-11 23:00N 60°34' E 004°53'0 0.1
2017-Dec-11 22:30N 60°34' E 004°52'0 0.7
2017-Dec-11 22:00N 60°34' E 004°53'5 9.7
2017-Dec-11 21:30N 60°30' E 004°59'510.4
2017-Dec-11 21:00N 60°25' E 005°03'5 9.3
2017-Dec-11 20:30N 60°22' E 005°10'4 8.7
2017-Dec-11 20:01N 60°18' E 005°09'2 3.9
2017-Dec-11 19:30N 60°16' E 005°06'0 0.0
2017-Dec-11 19:00N 60°16' E 005°06'0 0.0
2017-Dec-11 18:30N 60°16' E 005°06'0 0.0
2017-Dec-11 18:00N 60°16' E 005°06'0 0.0
2017-Dec-11 17:30N 60°16' E 005°06'0 0.0
2017-Dec-11 17:01N 60°16' E 005°06'0 0.0
2017-Dec-11 16:30N 60°16' E 005°06'0 0.0
2017-Dec-11 16:00N 60°16' E 005°06'0 0.0
2017-Dec-11 15:30N 60°16' E 005°06'0 0.0
2017-Dec-11 15:00N 60°16' E 005°06'0 0.0
2017-Dec-11 14:30N 60°16' E 005°06'0 0.0
2017-Dec-11 14:00N 60°16' E 005°06'0 0.0
2017-Dec-11 13:30N 60°16' E 005°06'0 0.0
2017-Dec-11 13:00N 60°16' E 005°06'0 0.0
2017-Dec-11 12:30N 60°16' E 005°06'0 0.0
2017-Dec-11 12:00N 60°16' E 005°06'0 0.0
2017-Dec-11 11:29N 60°16' E 005°06'0 0.0
2017-Dec-11 11:00N 60°16' E 005°06'0 0.0
2017-Dec-11 10:30N 60°16' E 005°06'0 0.0
2017-Dec-11 10:00N 60°16' E 005°06'0 0.0
2017-Dec-11 09:30N 60°16' E 005°06'0 0.0
2017-Dec-11 09:00N 60°16' E 005°06'0 0.0
2017-Dec-11 08:30N 60°16' E 005°06'0 0.0
2017-Dec-11 08:00N 60°16' E 005°06'0 0.0
2017-Dec-11 07:30N 60°16' E 005°06'0 0.0
2017-Dec-11 07:00N 60°16' E 005°06'0 0.0
2017-Dec-11 06:30N 60°16' E 005°06'0 0.0
2017-Dec-11 06:00N 60°16' E 005°06'0 0.0
2017-Dec-11 05:30N 60°16' E 005°06'0 0.0
2017-Dec-11 05:01N 60°16' E 005°06'0 0.0
2017-Dec-11 04:30N 60°16' E 005°06'0 0.0
2017-Dec-11 04:00N 60°16' E 005°06'0 0.0
2017-Dec-11 03:30N 60°16' E 005°06'1 1.5
2017-Dec-11 03:00N 60°16' E 005°08'510.2
2017-Dec-11 02:30N 60°11' E 005°14'510.1
2017-Dec-11 02:00N 60°07' E 005°19'5 9.9
2017-Dec-11 01:30N 60°02' E 005°20'510.3
2017-Dec-11 01:00N 59°58' E 005°25'611.1
2017-Dec-11 00:30N 59°53' E 005°32'510.4
2017-Dec-11 00:00N 59°48' E 005°34'5 9.1
2017-Dec-10 23:30N 59°44' E 005°30'4 8.8
2017-Dec-10 23:00N 59°41' E 005°24'4 8.9
2017-Dec-10 22:30N 59°38' E 005°18'4 8.6
2017-Dec-10 22:00N 59°34' E 005°12'4 7.9
2017-Dec-10 21:30N 59°38' E 005°08'5 9.2
2017-Dec-10 21:00N 59°42' E 005°09'2 3.1
2017-Dec-10 20:30N 59°44' E 005°09'0 0.0
2017-Dec-10 20:00N 59°44' E 005°09'0 0.0
2017-Dec-10 19:30N 59°44' E 005°09'0 0.0
2017-Dec-10 19:00N 59°44' E 005°09'0 0.0
2017-Dec-10 18:30N 59°44' E 005°09'0 0.0
2017-Dec-10 18:00N 59°44' E 005°09'0 0.0
2017-Dec-10 17:30N 59°44' E 005°09'0 0.0
2017-Dec-10 16:59N 59°44' E 005°09'3 5.4
2017-Dec-10 16:30N 59°41' E 005°09'5 9.4
2017-Dec-10 15:59N 59°36' E 005°10'3 5.8
2017-Dec-10 15:30N 59°36' E 005°15'2 3.6
2017-Dec-10 15:00N 59°38' E 005°15'2 3.6
2017-Dec-10 14:31N 59°39' E 005°17'510.0
2017-Dec-10 14:00N 59°42' E 005°25'510.2
2017-Dec-10 13:30N 59°46' E 005°32'4 8.2
2017-Dec-10 13:00N 59°50' E 005°33'4 7.9
2017-Dec-10 12:30N 59°54' E 005°31'4 7.6
2017-Dec-10 12:00N 59°57' E 005°27'4 7.6
2017-Dec-10 11:30N 59°59' E 005°21'4 8.1
2017-Dec-10 11:00N 60°03' E 005°19'4 8.6
2017-Dec-10 10:30N 60°07' E 005°18'4 8.2
2017-Dec-10 10:00N 60°11' E 005°14'4 8.2
2017-Dec-10 09:30N 60°15' E 005°09'2 3.9
2017-Dec-10 08:59N 60°16' E 005°06'0 0.0
2017-Dec-10 08:29N 60°16' E 005°06'0 0.0
2017-Dec-10 07:59N 60°16' E 005°06'0 0.0
2017-Dec-10 07:29N 60°16' E 005°06'0 0.0
2017-Dec-10 07:00N 60°16' E 005°06'0 0.0
2017-Dec-10 06:30N 60°16' E 005°06'0 0.0
2017-Dec-10 06:00N 60°16' E 005°06'2 3.7
2017-Dec-10 05:30N 60°18' E 005°08'5 9.3
2017-Dec-10 05:00N 60°22' E 005°10'4 8.6
2017-Dec-10 04:30N 60°25' E 005°03'4 8.6
2017-Dec-10 04:00N 60°29' E 004°59'4 8.6
2017-Dec-10 03:30N 60°33' E 004°56'4 8.6
2017-Dec-10 03:00N 60°37' E 004°53'4 8.3
2017-Dec-10 02:29N 60°41' E 004°51'4 8.6
2017-Dec-10 02:00N 60°45' E 004°48'4 8.7
2017-Dec-10 01:30N 60°49' E 004°44'4 8.6
2017-Dec-10 01:00N 60°53' E 004°46'4 8.5
2017-Dec-10 00:30N 60°57' E 004°46'4 8.2
2017-Dec-10 00:00N 61°01' E 004°51'5 9.2
2017-Dec-09 23:30N 61°04' E 004°59'4 8.7
2017-Dec-09 23:00N 61°08' E 005°02'3 5.7
2017-Dec-09 22:29N 61°10' E 005°00'0 0.0
2017-Dec-09 22:00N 61°10' E 005°00'0 0.0
2017-Dec-09 21:30N 61°10' E 005°00'0 0.0
2017-Dec-09 21:00N 61°10' E 005°00'2 3.3
2017-Dec-09 20:30N 61°10' E 005°03'0 0.3
2017-Dec-09 20:00N 61°10' E 005°03'2 3.4
2017-Dec-09 19:30N 61°11' E 005°05'0 0.0
2017-Dec-09 19:00N 61°11' E 005°05'0 0.0
2017-Dec-09 18:30N 61°11' E 005°05'0 0.0
2017-Dec-09 18:00N 61°11' E 005°05'0 0.0
2017-Dec-09 17:30N 61°11' E 005°05'0 0.0
2017-Dec-09 17:00N 61°11' E 005°05'0 0.0
2017-Dec-09 16:30N 61°11' E 005°05'0 0.0
2017-Dec-09 16:00N 61°11' E 005°05'3 6.8
2017-Dec-09 15:30N 61°13' E 004°59'4 8.1
2017-Dec-09 15:00N 61°17' E 004°56'5 9.4
2017-Dec-09 14:30N 61°20' E 005°03'5 9.7
2017-Dec-09 14:00N 61°24' E 004°59'5 9.4
2017-Dec-09 13:30N 61°29' E 004°59'5 9.6
2017-Dec-09 13:00N 61°33' E 004°60'3 5.6
2017-Dec-09 12:30N 61°36' E 005°01'0 0.8
2017-Dec-09 12:00N 61°36' E 005°02'0 0.0
2017-Dec-09 11:30N 61°36' E 005°02'0 0.0
2017-Dec-09 11:00N 61°36' E 005°02'0 0.0
2017-Dec-09 10:30N 61°36' E 005°02'0 0.0
2017-Dec-09 10:00N 61°36' E 005°02'0 0.0
2017-Dec-09 09:30N 61°36' E 005°02'0 0.0
2017-Dec-09 09:00N 61°36' E 005°02'0 0.0
2017-Dec-09 08:30N 61°36' E 005°02'0 0.0
2017-Dec-09 08:00N 61°36' E 005°02'0 0.0
2017-Dec-09 07:30N 61°36' E 005°02'0 0.0
2017-Dec-09 07:00N 61°36' E 005°02'0 0.0
2017-Dec-09 06:30N 61°36' E 005°02'0 0.0
2017-Dec-09 06:00N 61°36' E 005°02'0 0.0
2017-Dec-09 05:29N 61°36' E 005°02'0 0.0
2017-Dec-09 05:00N 61°36' E 005°02'0 0.0
2017-Dec-09 04:30N 61°36' E 005°02'0 0.0
2017-Dec-09 04:00N 61°36' E 005°02'0 0.0
2017-Dec-09 03:30N 61°36' E 005°02'0 0.0
2017-Dec-09 03:00N 61°36' E 005°02'0 0.0
2017-Dec-09 02:30N 61°36' E 005°02'0 0.0
2017-Dec-09 02:00N 61°36' E 005°02'0 0.0
2017-Dec-09 01:30N 61°36' E 005°02'0 0.0
2017-Dec-09 01:00N 61°36' E 005°02'0 0.0
2017-Dec-09 00:29N 61°36' E 005°02'0 0.0
2017-Dec-09 00:00N 61°36' E 005°02'0 0.0
2017-Dec-08 23:30N 61°36' E 005°02'1 1.0
2017-Dec-08 23:00N 61°36' E 005°01'4 9.0
2017-Dec-08 22:30N 61°40' E 004°58'510.1
2017-Dec-08 22:00N 61°45' E 005°01'2 3.3
2017-Dec-08 21:30N 61°45' E 005°04'0 0.0
2017-Dec-08 21:00N 61°45' E 005°04'1 1.4
2017-Dec-08 20:30N 61°46' E 005°05'510.0
2017-Dec-08 20:00N 61°49' E 005°13'3 6.0
2017-Dec-08 19:30N 61°52' E 005°13'3 5.2
2017-Dec-08 19:00N 61°54' E 005°17'1 1.4
2017-Dec-08 18:29N 61°55' E 005°18'0 0.0
2017-Dec-08 18:00N 61°55' E 005°18'0 0.0
2017-Dec-08 17:29N 61°55' E 005°18'0 0.0
2017-Dec-08 17:00N 61°55' E 005°18'0 0.0
2017-Dec-08 16:30N 61°55' E 005°18'3 5.8
2017-Dec-08 15:59N 61°53' E 005°12'3 5.7
2017-Dec-08 15:30N 61°51' E 005°16'4 8.6
2017-Dec-08 15:00N 61°49' E 005°09'5 9.1
2017-Dec-08 14:30N 61°46' E 005°02'4 8.0
2017-Dec-08 14:00N 61°42' E 004°58'4 8.4
2017-Dec-08 13:30N 61°38' E 004°59'4 8.1
2017-Dec-08 13:00N 61°35' E 004°54'2 3.2
2017-Dec-08 12:30N 61°34' E 004°51'0 0.0
2017-Dec-08 12:00N 61°34' E 004°51'0 0.0
2017-Dec-08 11:30N 61°34' E 004°51'0 0.0
2017-Dec-08 11:00N 61°34' E 004°51'1 1.5
2017-Dec-08 10:30N 61°35' E 004°52'4 9.0
2017-Dec-08 10:00N 61°36' E 005°01'1 1.2
2017-Dec-08 09:30N 61°36' E 005°02'0 0.0
2017-Dec-08 09:00N 61°36' E 005°02'0 0.0
2017-Dec-08 08:30N 61°36' E 005°02'0 0.0
2017-Dec-08 08:00N 61°36' E 005°02'0 0.0
2017-Dec-08 07:30N 61°36' E 005°02'0 0.0
2017-Dec-08 07:00N 61°36' E 005°02'0 0.0
2017-Dec-08 06:30N 61°36' E 005°02'0 0.0
2017-Dec-08 06:00N 61°36' E 005°02'0 0.0
2017-Dec-08 05:30N 61°36' E 005°02'0 0.0
2017-Dec-08 05:00N 61°36' E 005°02'0 0.0
2017-Dec-08 04:29N 61°36' E 005°02'0 0.0
2017-Dec-08 04:00N 61°36' E 005°02'0 0.0
2017-Dec-08 03:30N 61°36' E 005°02'2 4.7
2017-Dec-08 03:00N 61°38' E 004°59'510.3
2017-Dec-08 02:30N 61°43' E 004°58'5 9.4
2017-Dec-08 02:00N 61°47' E 005°04'5 9.4
2017-Dec-08 01:30N 61°49' E 005°13'3 6.1
2017-Dec-08 01:00N 61°52' E 005°13'2 3.8
2017-Dec-08 00:30N 61°54' E 005°12'0 0.0
2017-Dec-08 00:00N 61°54' E 005°12'0 0.0
2017-Dec-07 23:30N 61°54' E 005°12'0 0.0
2017-Dec-07 23:00N 61°54' E 005°12'1 2.3
2017-Dec-07 22:30N 61°54' E 005°10'3 6.5
2017-Dec-07 22:00N 61°57' E 005°08'0 0.0
2017-Dec-07 21:30N 61°56' E 005°08'0 0.8
2017-Dec-07 21:00N 61°57' E 005°08'4 8.9
2017-Dec-07 20:30N 62°01' E 005°09'5 9.3
2017-Dec-07 20:00N 62°06' E 005°06'4 8.3
2017-Dec-07 19:30N 62°10' E 005°04'4 7.8
2017-Dec-07 19:00N 62°13' E 005°09'5 8.9
2017-Dec-07 18:29N 62°12' E 005°18'4 8.8
2017-Dec-07 18:00N 62°12' E 005°27'4 9.0
2017-Dec-07 17:30N 62°10' E 005°36'0 0.0
2017-Dec-07 17:00N 62°10' E 005°36'4 8.3
2017-Dec-07 16:30N 62°12' E 005°44'2 3.6
2017-Dec-07 16:00N 62°13' E 005°47'0 0.1
2017-Dec-07 15:30N 62°13' E 005°47'4 8.5
2017-Dec-07 15:00N 62°14' E 005°55'4 8.8
2017-Dec-07 14:30N 62°18' E 006°01'5 9.5
2017-Dec-07 14:00N 62°21' E 006°09'5 9.6
2017-Dec-07 13:30N 62°23' E 006°18'3 6.6
2017-Dec-07 13:00N 62°20' E 006°23'0 0.0
2017-Dec-07 12:30N 62°20' E 006°23'0 0.0
2017-Dec-07 12:00N 62°20' E 006°23'0 0.0
2017-Dec-07 11:30N 62°20' E 006°23'0 0.0
2017-Dec-07 11:00N 62°20' E 006°23'0 0.0
2017-Dec-07 10:30N 62°20' E 006°23'0 0.0
2017-Dec-07 10:00N 62°20' E 006°23'0 0.0
2017-Dec-07 09:30N 62°20' E 006°23'0 0.0
2017-Dec-07 08:59N 62°20' E 006°23'0 0.0
2017-Dec-07 08:30N 62°20' E 006°23'0 0.0
2017-Dec-07 08:00N 62°20' E 006°23'0 0.0
2017-Dec-07 07:30N 62°20' E 006°23'0 0.0
2017-Dec-07 07:00N 62°20' E 006°23'2 4.8
2017-Dec-07 06:30N 62°23' E 006°21'510.2
2017-Dec-07 06:00N 62°23' E 006°10'4 8.8
2017-Dec-07 05:30N 62°26' E 006°02'5 9.7
2017-Dec-07 05:00N 62°30' E 006°08'5 9.4
2017-Dec-07 04:30N 62°34' E 006°12'5 9.5
2017-Dec-07 04:00N 62°37' E 006°19'5 9.3
2017-Dec-07 03:30N 62°41' E 006°26'5 9.5
2017-Dec-07 03:00N 62°45' E 006°32'5 9.3
2017-Dec-07 02:30N 62°49' E 006°37'5 9.3
2017-Dec-07 02:00N 62°52' E 006°43'5 9.5
2017-Dec-07 01:30N 62°56' E 006°49'5 9.2
2017-Dec-07 01:00N 62°59' E 006°57'510.3
2017-Dec-07 00:30N 63°01' E 007°07'510.6
2017-Dec-07 00:00N 63°03' E 007°18'510.5
2017-Dec-06 23:30N 63°05' E 007°29'510.5
2017-Dec-06 23:00N 63°08' E 007°38'510.6
2017-Dec-06 22:30N 63°11' E 007°48'510.6
2017-Dec-06 22:00N 63°14' E 007°58'510.5
2017-Dec-06 21:30N 63°17' E 008°08'510.0
2017-Dec-06 21:00N 63°20' E 008°17'  

Dump ship's entire track history